createdAt,value
2023-04-10T00:00:22.879Z,8.73
2023-04-10T00:02:49.552Z,8.74
2023-04-10T00:05:16.331Z,8.75
2023-04-10T00:07:42.760Z,8.71
2023-04-10T00:10:09.594Z,8.71
2023-04-10T00:12:37.592Z,8.69
2023-04-10T00:15:04.571Z,8.70
2023-04-10T00:17:31.165Z,8.73
2023-04-10T00:19:59.366Z,8.72
2023-04-10T00:22:28.024Z,8.68
2023-04-10T00:24:54.423Z,8.64
2023-04-10T00:27:20.953Z,8.64
2023-04-10T00:29:47.579Z,8.59
2023-04-10T00:32:14.187Z,8.57
2023-04-10T00:34:41.108Z,8.56
2023-04-10T00:37:08.003Z,8.56
2023-04-10T00:39:34.493Z,8.54
2023-04-10T00:42:02.279Z,8.52
2023-04-10T00:44:28.790Z,8.53
2023-04-10T00:46:55.292Z,8.52
2023-04-10T00:49:21.930Z,8.53
2023-04-10T00:51:48.799Z,8.52
2023-04-10T00:54:15.504Z,8.49
2023-04-10T00:56:43.211Z,8.46
2023-04-10T00:59:09.665Z,8.46
2023-04-10T01:01:36.415Z,8.42
2023-04-10T01:04:03.455Z,8.38
2023-04-10T01:06:43.866Z,8.34
2023-04-10T01:09:20.437Z,8.30
2023-04-10T01:11:53.412Z,8.27
2023-04-10T01:14:30.741Z,8.28
2023-04-10T01:17:03.398Z,8.30
2023-04-10T01:20:00.319Z,8.31
2023-04-10T01:22:35.612Z,8.27
2023-04-10T01:25:19.410Z,8.27
2023-04-10T01:27:58.162Z,8.29
2023-04-10T01:30:25.425Z,8.29
2023-04-10T01:32:54.024Z,8.28
2023-04-10T01:35:21.566Z,8.27
2023-04-10T01:37:50.897Z,8.26
2023-04-10T01:40:19.968Z,8.28
2023-04-10T01:42:55.331Z,8.31
2023-04-10T01:45:28.937Z,8.34
2023-04-10T01:47:56.423Z,8.38
2023-04-10T01:50:24.464Z,8.38
2023-04-10T01:52:54.462Z,8.38
2023-04-10T01:55:24.083Z,8.39
2023-04-10T01:57:55.822Z,8.42
2023-04-10T02:00:23.618Z,8.40
2023-04-10T02:02:51.808Z,8.40
2023-04-10T02:05:19.583Z,8.40
2023-04-10T02:08:08.704Z,8.39
2023-04-10T02:10:47.187Z,8.38
2023-04-10T02:13:15.716Z,8.35
2023-04-10T02:15:46.362Z,8.36
2023-04-10T02:18:16.912Z,8.32
2023-04-10T02:20:44.271Z,8.32
2023-04-10T02:23:12.633Z,8.31
2023-04-10T02:25:38.994Z,8.31
2023-04-10T02:28:07.218Z,8.33
2023-04-10T02:30:34.602Z,8.28
2023-04-10T02:33:01.317Z,8.26
2023-04-10T02:35:30.036Z,8.24
2023-04-10T02:37:56.592Z,8.25
2023-04-10T02:40:23.151Z,8.25
2023-04-10T02:43:16.037Z,8.22
2023-04-10T02:45:42.562Z,8.24
2023-04-10T02:48:11.263Z,8.19
2023-04-10T02:50:37.655Z,8.18
2023-04-10T02:53:04.159Z,8.16
2023-04-10T02:55:30.913Z,8.15
2023-04-10T02:57:57.605Z,8.12
2023-04-10T03:00:24.108Z,8.11
2023-04-10T03:03:07.379Z,8.11
2023-04-10T03:05:43.846Z,8.09
2023-04-10T03:08:10.273Z,8.08
2023-04-10T03:10:36.811Z,8.06
2023-04-10T03:13:03.235Z,8.04
2023-04-10T03:15:29.775Z,8.05
2023-04-10T03:17:57.851Z,8.04
2023-04-10T03:20:24.440Z,8.03
2023-04-10T03:22:51.009Z,8.01
2023-04-10T03:25:17.659Z,7.98
2023-04-10T03:27:45.686Z,7.96
2023-04-10T03:30:12.590Z,7.94
2023-04-10T03:32:42.999Z,7.92
2023-04-10T03:35:10.302Z,7.88
2023-04-10T03:37:36.854Z,7.87
2023-04-10T03:40:07.463Z,7.86
2023-04-10T03:42:35.246Z,7.85
2023-04-10T03:45:04.614Z,7.79
2023-04-10T03:47:34.535Z,7.80
2023-04-10T03:50:03.437Z,7.81
2023-04-10T03:52:37.595Z,7.80
2023-04-10T03:55:06.419Z,7.79
2023-04-10T03:57:32.900Z,7.79
2023-04-10T04:00:05.303Z,7.78
2023-04-10T04:02:46.724Z,7.81
2023-04-10T04:05:19.088Z,7.80
2023-04-10T04:08:01.205Z,7.79
2023-04-10T04:10:54.580Z,7.77
2023-04-10T04:13:27.201Z,7.78
2023-04-10T04:16:16.535Z,7.76
2023-04-10T04:18:51.680Z,7.77
2023-04-10T04:21:39.222Z,7.77
2023-04-10T04:24:23.838Z,7.78
2023-04-10T04:26:57.639Z,7.76
2023-04-10T04:29:47.175Z,7.77
2023-04-10T04:32:25.367Z,7.76
2023-04-10T04:35:17.771Z,7.71
2023-04-10T04:37:50.210Z,7.72
2023-04-10T04:40:29.180Z,7.72
2023-04-10T04:43:18.845Z,7.70
2023-04-10T04:46:01.460Z,7.68
2023-04-10T04:48:46.224Z,7.67
2023-04-10T04:51:29.751Z,7.65
2023-04-10T04:54:04.675Z,7.61
2023-04-10T04:56:31.169Z,7.61
2023-04-10T04:59:21.814Z,7.60
2023-04-10T05:02:16.728Z,7.56
2023-04-10T05:05:01.908Z,7.54
2023-04-10T05:07:43.552Z,7.53
2023-04-10T05:10:28.690Z,7.54
2023-04-10T05:13:33.664Z,7.53
2023-04-10T05:16:23.333Z,7.55
2023-04-10T05:19:18.983Z,7.58
2023-04-10T05:22:00.762Z,7.62
2023-04-10T05:24:53.177Z,7.68
2023-04-10T05:27:28.460Z,7.75
2023-04-10T05:30:07.593Z,7.81
2023-04-10T05:32:36.887Z,7.90
2023-04-10T05:35:41.446Z,7.99
2023-04-10T05:38:26.373Z,8.06
2023-04-10T05:41:14.170Z,8.14
2023-04-10T05:44:04.823Z,8.22
2023-04-10T05:46:50.033Z,8.30
2023-04-10T05:49:24.450Z,8.34
2023-04-10T05:52:11.029Z,8.38
2023-04-10T05:54:56.216Z,8.41
2023-04-10T05:57:53.801Z,8.42
2023-04-10T06:00:47.550Z,8.48
2023-04-10T06:03:37.048Z,8.52
2023-04-10T06:06:07.817Z,8.55
2023-04-10T06:08:39.120Z,8.60
2023-04-10T06:11:05.626Z,8.67
2023-04-10T06:13:33.260Z,8.76
2023-04-10T06:16:01.426Z,8.82
2023-04-10T06:18:29.275Z,8.87
2023-04-10T06:20:58.020Z,8.94
2023-04-10T06:23:24.623Z,9.01
2023-04-10T06:25:51.152Z,9.12
2023-04-10T06:28:17.962Z,9.20
2023-04-10T06:30:47.923Z,9.30
2023-04-10T06:33:14.477Z,9.35
2023-04-10T06:35:43.559Z,9.41
2023-04-10T06:38:10.210Z,9.46
2023-04-10T06:40:37.268Z,9.53
2023-04-10T06:43:03.697Z,9.65
2023-04-10T06:45:37.300Z,9.79
2023-04-10T06:48:04.575Z,9.94
2023-04-10T06:50:33.276Z,10.05
2023-04-10T06:53:00.110Z,10.28
2023-04-10T06:55:27.081Z,10.47
2023-04-10T06:57:53.626Z,10.61
2023-04-10T07:00:20.770Z,10.70
2023-04-10T07:02:47.294Z,10.71
2023-04-10T07:05:14.430Z,10.76
2023-04-10T07:07:40.811Z,10.92
2023-04-10T07:10:07.815Z,11.03
2023-04-10T07:12:34.326Z,11.12
2023-04-10T07:15:00.879Z,11.25
2023-04-10T07:17:27.414Z,11.52
2023-04-10T07:19:53.863Z,11.99
2023-04-10T07:22:20.265Z,12.32
2023-04-10T07:24:46.775Z,12.34
2023-04-10T07:27:13.226Z,12.52
2023-04-10T07:29:39.651Z,12.70
2023-04-10T07:32:06.259Z,12.97
2023-04-10T07:34:32.786Z,13.32
2023-04-10T07:36:59.314Z,13.99
2023-04-10T07:39:25.959Z,14.48
2023-04-10T07:41:54.554Z,14.66
2023-04-10T07:44:21.086Z,15.09
2023-04-10T07:46:47.552Z,15.63
2023-04-10T07:49:14.032Z,16.24
2023-04-10T07:51:40.816Z,17.01
2023-04-10T07:54:07.260Z,17.58
2023-04-10T07:56:33.796Z,18.31
2023-04-10T07:59:01.086Z,18.11
2023-04-10T08:01:29.013Z,17.32
2023-04-10T08:03:59.046Z,16.34
2023-04-10T08:06:25.889Z,15.20
2023-04-10T08:08:52.955Z,14.48
2023-04-10T08:11:37.412Z,14.03
2023-04-10T08:14:05.829Z,13.65
2023-04-10T08:16:36.237Z,13.37
2023-04-10T08:19:03.480Z,13.22
2023-04-10T08:21:32.021Z,13.42
2023-04-10T08:23:59.663Z,13.85
2023-04-10T08:26:27.509Z,14.35
2023-04-10T08:28:57.510Z,14.73
2023-04-10T08:31:25.434Z,15.13
2023-04-10T08:33:52.143Z,15.04
2023-04-10T08:36:20.286Z,14.73
2023-04-10T08:38:47.751Z,14.60
2023-04-10T08:41:15.938Z,14.38
2023-04-10T08:43:43.525Z,14.11
2023-04-10T08:46:10.022Z,13.97
2023-04-10T08:48:56.739Z,13.78
2023-04-10T08:51:28.868Z,13.55
2023-04-10T08:54:01.352Z,13.47
2023-04-10T08:56:27.886Z,13.32
2023-04-10T08:58:54.408Z,13.27
2023-04-10T09:01:21.840Z,13.28
2023-04-10T09:03:49.013Z,13.44
2023-04-10T09:06:15.645Z,13.42
2023-04-10T09:08:42.145Z,13.38
2023-04-10T09:11:08.957Z,13.39
2023-04-10T09:13:37.912Z,13.46
2023-04-10T09:16:05.372Z,13.40
2023-04-10T09:18:45.805Z,13.34
2023-04-10T09:21:13.304Z,13.29
2023-04-10T09:23:42.292Z,13.16
2023-04-10T09:26:29.078Z,13.16
2023-04-10T09:29:07.059Z,13.10
2023-04-10T09:31:35.529Z,13.13
2023-04-10T09:34:08.926Z,13.20
2023-04-10T09:36:36.842Z,13.27
2023-04-10T09:39:05.803Z,13.23
2023-04-10T09:41:32.446Z,13.25
2023-04-10T09:44:10.614Z,13.37
2023-04-10T09:46:37.669Z,13.46
2023-04-10T09:49:07.644Z,13.52
2023-04-10T09:51:35.797Z,13.71
2023-04-10T09:54:03.786Z,13.84
2023-04-10T09:56:30.499Z,13.86
2023-04-10T09:58:59.425Z,13.93
2023-04-10T10:01:28.244Z,13.98
2023-04-10T10:03:56.360Z,14.08
2023-04-10T10:06:23.507Z,14.15
2023-04-10T10:08:50.938Z,14.20
2023-04-10T10:11:26.162Z,14.20
2023-04-10T10:13:54.763Z,14.26
2023-04-10T10:16:29.223Z,14.41
2023-04-10T10:19:08.015Z,14.49
2023-04-10T10:21:35.749Z,14.57
2023-04-10T10:24:03.004Z,14.55
2023-04-10T10:26:31.986Z,14.57
2023-04-10T10:29:02.708Z,14.68
2023-04-10T10:31:33.274Z,14.81
2023-04-10T10:34:04.932Z,14.95
2023-04-10T10:36:34.261Z,15.02
2023-04-10T10:39:28.082Z,15.27
2023-04-10T10:42:02.195Z,15.42
2023-04-10T10:44:50.989Z,15.59
2023-04-10T10:47:23.108Z,15.70
2023-04-10T10:49:57.763Z,15.75
2023-04-10T10:52:47.156Z,15.56
2023-04-10T10:55:22.882Z,15.67
2023-04-10T10:57:53.788Z,16.06
2023-04-10T11:00:24.764Z,16.51
2023-04-10T11:03:10.438Z,16.93
2023-04-10T11:05:55.075Z,17.28
2023-04-10T11:08:34.065Z,17.67
2023-04-10T11:11:06.992Z,17.89
2023-04-10T11:13:34.957Z,17.84
2023-04-10T11:16:03.273Z,17.72
2023-04-10T11:18:45.476Z,17.94
2023-04-10T11:21:16.098Z,17.78
2023-04-10T11:23:55.693Z,17.35
2023-04-10T11:26:38.255Z,17.05
2023-04-10T11:29:06.242Z,16.98
2023-04-10T11:31:33.892Z,16.82
2023-04-10T11:34:05.902Z,16.96
2023-04-10T11:36:33.701Z,16.97
2023-04-10T11:39:08.824Z,16.83
2023-04-10T11:41:39.615Z,17.07
2023-04-10T11:44:08.014Z,17.29
2023-04-10T11:46:41.825Z,17.25
2023-04-10T11:49:10.176Z,17.22
2023-04-10T11:51:38.259Z,17.07
2023-04-10T11:54:08.376Z,17.11
2023-04-10T11:56:36.258Z,17.21
2023-04-10T11:59:07.174Z,17.56
2023-04-10T12:01:34.265Z,17.47
2023-04-10T12:04:01.564Z,17.54
2023-04-10T12:06:28.972Z,17.91
2023-04-10T12:08:56.071Z,18.01
2023-04-10T12:11:26.602Z,17.70
2023-04-10T12:13:57.027Z,17.70
2023-04-10T12:16:24.878Z,17.69
2023-04-10T12:18:52.735Z,17.64
2023-04-10T12:21:20.317Z,17.71
2023-04-10T12:23:46.741Z,17.56
2023-04-10T12:26:16.208Z,17.40
2023-04-10T12:28:55.651Z,17.25
2023-04-10T12:31:32.690Z,17.15
2023-04-10T12:34:00.798Z,16.99
2023-04-10T12:36:32.181Z,16.90
2023-04-10T12:39:00.680Z,16.78
2023-04-10T12:41:30.503Z,16.84
2023-04-10T12:44:08.777Z,16.96
2023-04-10T12:46:36.580Z,16.92
2023-04-10T12:49:09.607Z,16.70
2023-04-10T12:51:52.414Z,16.64
2023-04-10T12:54:33.226Z,16.57
2023-04-10T12:57:01.329Z,16.42
2023-04-10T12:59:30.569Z,16.28
2023-04-10T13:01:57.235Z,16.14
2023-04-10T13:04:24.176Z,16.05
2023-04-10T13:06:53.689Z,15.95
2023-04-10T13:09:20.252Z,15.91
2023-04-10T13:11:47.416Z,15.90
2023-04-10T13:14:15.854Z,15.90
2023-04-10T13:16:42.514Z,15.87
2023-04-10T13:19:09.010Z,15.88
2023-04-10T13:21:35.792Z,15.89
2023-04-10T13:24:02.285Z,15.87
2023-04-10T13:26:28.730Z,15.85
2023-04-10T13:28:55.354Z,15.87
2023-04-10T13:31:22.056Z,15.91
2023-04-10T13:33:48.534Z,16.01
2023-04-10T13:36:15.613Z,16.14
2023-04-10T13:38:42.368Z,16.08
2023-04-10T13:41:09.126Z,15.87
2023-04-10T13:43:36.518Z,15.68
2023-04-10T13:46:03.038Z,15.53
2023-04-10T13:48:37.518Z,15.40
2023-04-10T13:51:07.975Z,15.26
2023-04-10T13:53:35.134Z,15.11
2023-04-10T13:56:01.679Z,14.94
2023-04-10T13:58:31.715Z,14.96
2023-04-10T14:00:58.413Z,14.98
2023-04-10T14:03:24.989Z,14.97
2023-04-10T14:05:52.772Z,15.01
2023-04-10T14:08:20.249Z,15.07
2023-04-10T14:10:50.747Z,15.09
2023-04-10T14:13:17.958Z,14.94
2023-04-10T14:15:44.782Z,14.88
2023-04-10T14:18:11.348Z,14.76
2023-04-10T14:20:38.673Z,14.55
2023-04-10T14:23:05.449Z,14.31
2023-04-10T14:25:32.129Z,14.09
2023-04-10T14:27:59.247Z,13.92
2023-04-10T14:30:30.672Z,13.43
2023-04-10T14:32:57.374Z,13.18
2023-04-10T14:35:23.985Z,13.02
2023-04-10T14:37:50.592Z,12.97
2023-04-10T14:40:17.056Z,12.95
2023-04-10T14:42:43.512Z,12.95
2023-04-10T14:45:10.606Z,12.94
2023-04-10T14:47:37.132Z,12.96
2023-04-10T14:50:03.699Z,12.98
2023-04-10T14:52:30.133Z,12.99
2023-04-10T14:54:56.596Z,13.00
2023-04-10T14:57:23.154Z,12.96
2023-04-10T14:59:49.553Z,12.93
2023-04-10T15:02:16.019Z,12.86
2023-04-10T15:04:42.498Z,12.89
2023-04-10T15:07:08.945Z,12.87
2023-04-10T15:09:35.386Z,12.74
2023-04-10T15:12:02.014Z,12.61
2023-04-10T15:14:28.587Z,12.55
2023-04-10T15:16:55.271Z,12.49
2023-04-10T15:19:21.689Z,12.38
2023-04-10T15:21:48.196Z,12.35
2023-04-10T15:24:14.616Z,12.24
2023-04-10T15:26:45.730Z,12.15
2023-04-10T15:29:13.249Z,12.09
2023-04-10T15:31:40.536Z,12.05
2023-04-10T15:34:07.704Z,12.02
2023-04-10T15:36:34.137Z,11.99
2023-04-10T15:39:02.711Z,11.94
2023-04-10T15:41:31.680Z,11.90
2023-04-10T15:43:58.108Z,11.91
2023-04-10T15:46:24.634Z,11.89
2023-04-10T15:48:51.217Z,11.88
2023-04-10T15:51:17.702Z,11.86
2023-04-10T15:53:44.201Z,11.91
2023-04-10T15:56:10.727Z,11.95
2023-04-10T15:58:37.160Z,11.98
2023-04-10T16:01:03.859Z,11.96
2023-04-10T16:03:30.717Z,11.96
2023-04-10T16:05:58.224Z,11.92
2023-04-10T16:08:26.085Z,11.90
2023-04-10T16:10:53.157Z,11.88
2023-04-10T16:13:21.328Z,11.88
2023-04-10T16:15:49.713Z,11.82
2023-04-10T16:18:16.296Z,11.79
2023-04-10T16:20:42.813Z,11.79
2023-04-10T16:23:09.537Z,11.76
2023-04-10T16:25:36.108Z,11.71
2023-04-10T16:28:02.705Z,11.68
2023-04-10T16:30:29.192Z,11.67
2023-04-10T16:32:55.683Z,11.58
2023-04-10T16:35:22.707Z,11.49
2023-04-10T16:37:49.506Z,11.52
2023-04-10T16:40:16.102Z,11.46
2023-04-10T16:42:42.826Z,11.43
2023-04-10T16:45:09.766Z,11.43
2023-04-10T16:47:36.300Z,11.44
2023-04-10T16:50:03.043Z,11.41
2023-04-10T16:52:29.498Z,11.41
2023-04-10T16:54:55.962Z,11.36
2023-04-10T16:57:22.416Z,11.35
2023-04-10T16:59:48.820Z,11.35
2023-04-10T17:02:15.294Z,11.34
2023-04-10T17:04:41.789Z,11.35
2023-04-10T17:07:08.341Z,11.26
2023-04-10T17:09:34.820Z,11.27
2023-04-10T17:12:01.537Z,11.27
2023-04-10T17:14:28.233Z,11.22
2023-04-10T17:16:54.773Z,11.18
2023-04-10T17:19:21.317Z,11.08
2023-04-10T17:21:47.796Z,11.06
2023-04-10T17:24:14.745Z,11.05
2023-04-10T17:26:41.312Z,11.03
2023-04-10T17:29:07.754Z,11.02
2023-04-10T17:31:34.332Z,11.01
2023-04-10T17:34:02.171Z,10.98
2023-04-10T17:36:28.718Z,10.99
2023-04-10T17:38:55.599Z,10.97
2023-04-10T17:41:22.405Z,10.97
2023-04-10T17:43:49.115Z,10.96
2023-04-10T17:46:16.115Z,10.99
2023-04-10T17:48:43.402Z,11.03
2023-04-10T17:51:10.186Z,11.01
2023-04-10T17:53:36.825Z,10.98
2023-04-10T17:56:04.492Z,10.93
2023-04-10T17:58:31.017Z,10.87
2023-04-10T18:00:57.462Z,10.82
2023-04-10T18:03:24.123Z,10.79
2023-04-10T18:05:50.665Z,10.76
2023-04-10T18:08:17.136Z,10.73
2023-04-10T18:10:43.589Z,10.72
2023-04-10T18:13:10.032Z,10.72
2023-04-10T18:15:36.427Z,10.71
2023-04-10T18:18:03.067Z,10.71
2023-04-10T18:20:29.577Z,10.74
2023-04-10T18:22:56.041Z,10.72
2023-04-10T18:25:22.493Z,10.72
2023-04-10T18:28:09.573Z,10.71
2023-04-10T18:30:38.790Z,10.70
2023-04-10T18:33:08.405Z,10.69
2023-04-10T18:35:36.525Z,10.67
2023-04-10T18:38:03.271Z,10.68
2023-04-10T18:40:29.799Z,10.68
2023-04-10T18:42:56.336Z,10.65
2023-04-10T18:45:22.764Z,10.64
2023-04-10T18:47:49.233Z,10.63
2023-04-10T18:50:15.851Z,10.61
2023-04-10T18:52:42.281Z,10.60
2023-04-10T18:55:09.993Z,10.59
2023-04-10T18:57:36.503Z,10.58
2023-04-10T19:00:04.584Z,10.59
2023-04-10T19:02:31.216Z,10.59
2023-04-10T19:04:57.892Z,10.56
2023-04-10T19:07:24.336Z,10.59
2023-04-10T19:09:50.967Z,10.60
2023-04-10T19:12:17.515Z,10.60
2023-04-10T19:14:44.015Z,10.60
2023-04-10T19:17:10.563Z,10.61
2023-04-10T19:19:37.021Z,10.60
2023-04-10T19:22:03.558Z,10.62
2023-04-10T19:24:32.321Z,10.61
2023-04-10T19:27:00.545Z,10.63
2023-04-10T19:29:27.045Z,10.62
2023-04-10T19:31:53.525Z,10.59
2023-04-10T19:34:20.098Z,10.57
2023-04-10T19:36:46.721Z,10.55
2023-04-10T19:39:13.182Z,10.56
2023-04-10T19:41:41.971Z,10.54
2023-04-10T19:44:08.776Z,10.51
2023-04-10T19:46:35.251Z,10.47
2023-04-10T19:49:01.904Z,10.40
2023-04-10T19:51:28.426Z,10.34
2023-04-10T19:53:58.573Z,10.28
2023-04-10T19:56:26.562Z,10.23
2023-04-10T19:58:53.046Z,10.19
2023-04-10T20:01:19.634Z,10.16
2023-04-10T20:03:46.210Z,10.17
2023-04-10T20:06:12.924Z,10.23
2023-04-10T20:08:39.388Z,10.26
2023-04-10T20:11:06.391Z,10.27
2023-04-10T20:13:34.400Z,10.29
2023-04-10T20:16:00.980Z,10.33
2023-04-10T20:18:27.477Z,10.36
2023-04-10T20:20:53.910Z,10.38
2023-04-10T20:23:20.547Z,10.39
2023-04-10T20:25:46.981Z,10.36
2023-04-10T20:28:13.459Z,10.35
2023-04-10T20:30:39.884Z,10.34
2023-04-10T20:33:06.558Z,10.32
2023-04-10T20:35:33.663Z,10.33
2023-04-10T20:38:00.125Z,10.36
2023-04-10T20:40:26.678Z,10.39
2023-04-10T20:42:53.900Z,10.40
2023-04-10T20:45:20.476Z,10.41
2023-04-10T20:47:46.901Z,10.40
2023-04-10T20:50:13.424Z,10.40
2023-04-10T20:52:39.924Z,10.34
2023-04-10T20:55:06.751Z,10.28
2023-04-10T20:57:33.749Z,10.22
2023-04-10T21:00:00.450Z,10.17
2023-04-10T21:02:27.069Z,10.09
2023-04-10T21:04:53.747Z,10.03
2023-04-10T21:07:20.283Z,10.00
2023-04-10T21:09:46.846Z,9.99
2023-04-10T21:12:13.350Z,9.94
2023-04-10T21:14:39.772Z,9.94
2023-04-10T21:17:06.193Z,9.95
2023-04-10T21:19:32.714Z,9.97
2023-04-10T21:21:59.162Z,9.98
2023-04-10T21:24:26.026Z,9.98
2023-04-10T21:26:52.555Z,9.96
2023-04-10T21:29:19.041Z,9.99
2023-04-10T21:31:47.902Z,10.01
2023-04-10T21:34:15.896Z,10.03
2023-04-10T21:36:42.430Z,10.06
2023-04-10T21:39:09.302Z,10.08
2023-04-10T21:41:39.175Z,10.07
2023-04-10T21:44:06.563Z,10.08
2023-04-10T21:46:33.259Z,10.09
2023-04-10T21:48:59.863Z,10.09
2023-04-10T21:51:27.754Z,10.08
2023-04-10T21:53:54.263Z,10.09
2023-04-10T21:56:20.962Z,10.08
2023-04-10T21:58:47.405Z,10.08
2023-04-10T22:01:13.920Z,10.09
2023-04-10T22:03:41.119Z,10.08
2023-04-10T22:06:08.831Z,10.05
2023-04-10T22:08:37.969Z,10.04
2023-04-10T22:11:05.838Z,10.06
2023-04-10T22:13:32.362Z,10.05
2023-04-10T22:16:02.220Z,10.06
2023-04-10T22:18:29.146Z,10.03
2023-04-10T22:20:55.601Z,10.01
2023-04-10T22:23:22.320Z,10.00
2023-04-10T22:25:48.742Z,9.98
2023-04-10T22:28:15.349Z,9.82
2023-04-10T22:30:41.785Z,9.61
2023-04-10T22:33:08.291Z,9.34
2023-04-10T22:35:34.786Z,9.09
2023-04-10T22:38:03.475Z,8.90
2023-04-10T22:40:30.203Z,8.75
2023-04-10T22:42:56.674Z,8.60
2023-04-10T22:45:23.338Z,8.55
2023-04-10T22:47:49.768Z,8.46
2023-04-10T22:50:16.269Z,8.43
2023-04-10T22:52:42.697Z,8.35
2023-04-10T22:55:09.372Z,8.24
2023-04-10T22:57:35.805Z,8.18
2023-04-10T23:00:03.631Z,8.09
2023-04-10T23:02:31.312Z,8.03
2023-04-10T23:04:58.062Z,7.90
2023-04-10T23:07:25.860Z,7.83
2023-04-10T23:09:52.314Z,7.73
2023-04-10T23:12:18.829Z,7.63
2023-04-10T23:14:45.340Z,7.60
2023-04-10T23:17:11.843Z,7.52
2023-04-10T23:19:38.251Z,7.46
2023-04-10T23:22:05.353Z,7.40
2023-04-10T23:24:31.863Z,7.36
2023-04-10T23:26:58.334Z,7.28
2023-04-10T23:29:24.867Z,7.26
2023-04-10T23:31:51.274Z,7.24
2023-04-10T23:34:18.809Z,7.22
2023-04-10T23:36:45.325Z,7.23
2023-04-10T23:39:12.534Z,7.26
2023-04-10T23:41:39.071Z,7.25
2023-04-10T23:44:05.583Z,7.21
2023-04-10T23:46:32.158Z,7.21
2023-04-10T23:48:58.626Z,7.20
2023-04-10T23:51:26.642Z,7.20
2023-04-10T23:53:53.237Z,7.21
2023-04-10T23:56:20.820Z,7.25
2023-04-10T23:58:47.269Z,7.25
